Time;durP1;ratioP1;P1;durP2;ratioP2;P2;SDS_P1;SDS_P2;PMS_P1;PMS_P2;Temp;Humidity;BMP_temperature;BMP_pressure;BME280_temperature;BME280_humidity;BME280_pressure;Samples;Min_cycle;Max_cycle;Signal;HPM_P1;HPM_P2
2023/12/10 00:00:11;;;;;;;0.10;0.10;;;;;;;3.93;70.88;101556.69;5048880;28;20062;-87
2023/12/10 00:02:36;;;;;;;0.20;0.20;;;;;;;3.88;70.64;101532.84;5049190;28;20505;-87
2023/12/10 00:05:02;;;;;;;0.20;0.20;;;;;;;4.01;70.45;101547.25;5032618;28;20029;-88
2023/12/10 00:07:27;;;;;;;0.20;0.20;;;;;;;3.95;70.34;101549.88;5052289;28;20055;-89
2023/12/10 00:09:53;;;;;;;0.20;0.20;;;;;;;3.91;70.76;101548.16;5036522;28;20406;-88
2023/12/10 00:12:19;;;;;;;0.20;0.20;;;;;;;3.91;71.18;101546.47;5052629;28;20049;-87
2023/12/10 00:14:49;;;;;;;0.20;0.20;;;;;;;3.83;71.08;101520.06;5036605;28;20025;-87
2023/12/10 00:17:15;;;;;;;0.10;0.10;;;;;;;3.83;70.44;101529.44;5052546;28;20469;-88
2023/12/10 00:19:40;;;;;;;0.20;0.20;;;;;;;3.86;71.15;101524.31;5019719;28;20025;-86
2023/12/10 00:22:06;;;;;;;0.20;0.20;;;;;;;3.93;71.05;101533.63;5036060;28;20021;-88
2023/12/10 00:24:31;;;;;;;0.20;0.20;;;;;;;3.85;71.18;101510.69;5052730;28;20029;-87
2023/12/10 00:26:57;;;;;;;0.20;0.20;;;;;;;3.86;70.89;101491.91;5052231;28;20437;-87
2023/12/10 00:29:22;;;;;;;0.20;0.20;;;;;;;3.96;70.85;101498.66;5036055;28;20053;-87
2023/12/10 00:31:49;;;;;;;0.20;0.20;;;;;;;3.94;71.22;101496.97;5052779;28;20074;-87
2023/12/10 00:34:15;;;;;;;0.20;0.20;;;;;;;3.84;71.39;101492.78;5052782;28;20025;-88
2023/12/10 00:36:40;;;;;;;0.10;0.10;;;;;;;3.89;71.09;101508.94;5052633;28;20029;-87
2023/12/10 00:39:06;;;;;;;0.20;0.20;;;;;;;3.81;71.42;101491.06;5052528;28;20039;-87
2023/12/10 00:41:32;;;;;;;0.20;0.20;;;;;;;3.86;71.35;101498.72;5035791;28;20514;-87
2023/12/10 00:43:57;;;;;;;0.20;0.20;;;;;;;3.79;71.33;101490.25;5035640;28;20036;-87
2023/12/10 00:46:23;;;;;;;0.13;0.13;;;;;;;3.89;71.54;101511.50;5052343;28;20521;-87
2023/12/10 00:48:48;;;;;;;0.10;0.10;;;;;;;3.82;72.13;101500.44;5052129;28;20052;-88
2023/12/10 00:51:21;;;;;;;0.20;0.20;;;;;;;3.86;71.56;101491.06;5053773;28;20108;-87
2023/12/10 00:53:47;;;;;;;0.10;0.10;;;;;;;3.88;71.02;101491.88;5052510;28;20037;-87
2023/12/10 00:56:12;;;;;;;0.20;0.20;;;;;;;3.86;71.33;101489.34;5018847;28;20028;-87
2023/12/10 00:58:38;;;;;;;0.20;0.20;;;;;;;3.95;71.33;101488.44;5051972;28;20037;-89
2023/12/10 01:01:04;;;;;;;0.10;0.10;;;;;;;3.92;71.38;101493.53;5052015;28;20039;-87
2023/12/10 01:03:29;;;;;;;0.20;0.20;;;;;;;3.94;70.95;101479.03;5035213;28;20040;-89
2023/12/10 01:05:55;;;;;;;0.17;0.17;;;;;;;3.88;71.34;101481.66;5052171;28;20048;-86
2023/12/10 01:08:20;;;;;;;0.20;0.20;;;;;;;3.85;71.76;101474.00;5035495;28;20413;-85
2023/12/10 01:10:46;;;;;;;0.10;0.10;;;;;;;3.91;71.04;101471.38;5051687;28;20403;-88
2023/12/10 01:13:12;;;;;;;0.20;0.20;;;;;;;3.80;71.78;101455.25;5035312;28;20032;-87
2023/12/10 01:15:37;;;;;;;0.20;0.20;;;;;;;3.80;71.54;101453.53;5018629;28;20495;-88
2023/12/10 01:18:03;;;;;;;0.20;0.20;;;;;;;3.87;72.09;101462.03;5051072;28;20383;-87
2023/12/10 01:20:30;;;;;;;0.10;0.10;;;;;;;3.89;71.51;101452.63;5035241;28;20388;-87
2023/12/10 01:22:56;;;;;;;0.20;0.20;;;;;;;3.94;71.31;101453.44;5034745;28;20532;-89
2023/12/10 01:25:22;;;;;;;0.20;0.20;;;;;;;3.92;71.40;101457.69;5035255;28;20154;-87
2023/12/10 01:27:47;;;;;;;0.20;0.20;;;;;;;3.92;71.39;101452.59;5035383;28;20115;-87
2023/12/10 01:30:13;;;;;;;0.20;0.20;;;;;;;3.90;71.44;101451.75;5018538;28;20079;-87
2023/12/10 01:32:40;;;;;;;0.20;0.20;;;;;;;3.60;72.11;101435.78;5018452;28;20064;-88
2023/12/10 01:35:07;;;;;;;0.20;0.20;;;;;;;3.79;71.84;101453.56;5035362;28;20028;-87
2023/12/10 01:37:33;;;;;;;0.20;0.20;;;;;;;3.82;71.93;101451.81;5018483;28;20029;-88
2023/12/10 01:39:59;;;;;;;0.20;0.20;;;;;;;3.83;71.67;101442.41;5034721;28;20032;-87
2023/12/10 01:42:24;;;;;;;0.20;0.20;;;;;;;3.79;71.04;101425.41;5051719;28;20458;-87
2023/12/10 01:44:50;;;;;;;0.20;0.20;;;;;;;3.63;71.57;101399.91;5034680;28;20067;-88
2023/12/10 01:47:17;;;;;;;0.20;0.20;;;;;;;3.80;71.18;101421.97;5051032;28;20033;-88
2023/12/10 01:49:42;;;;;;;0.20;0.20;;;;;;;3.83;71.36;101411.69;5051250;28;20502;-88
2023/12/10 01:52:08;;;;;;;0.20;0.20;;;;;;;3.76;71.60;101410.09;5050579;28;20025;-88
2023/12/10 01:54:34;;;;;;;0.10;0.10;;;;;;;3.77;71.79;101416.91;5051121;28;20502;-88
2023/12/10 01:56:59;;;;;;;0.20;0.20;;;;;;;3.75;71.79;101409.22;5034327;28;20025;-88
2023/12/10 01:59:25;;;;;;;0.10;0.10;;;;;;;3.74;71.27;101395.59;5034394;28;20028;-88
2023/12/10 02:01:50;;;;;;;0.10;0.10;;;;;;;3.78;71.62;101413.47;5034290;28;20044;-87
2023/12/10 02:04:16;;;;;;;0.20;0.20;;;;;;;3.76;72.38;101420.31;5034086;28;20056;-88
2023/12/10 02:06:42;;;;;;;0.20;0.20;;;;;;;3.76;71.63;101418.59;5050467;28;20021;-87
2023/12/10 02:09:17;;;;;;;0.20;0.20;;;;;;;3.69;72.08;101425.47;5034398;28;20582;-87
2023/12/10 02:11:43;;;;;;;0.20;0.20;;;;;;;3.57;72.34;101410.22;5051952;28;20482;-88
2023/12/10 02:14:09;;;;;;;0.20;0.20;;;;;;;3.77;71.61;101417.75;5050822;28;20032;-87
2023/12/10 02:16:34;;;;;;;0.20;0.20;;;;;;;3.80;71.31;101416.84;5050281;28;20499;-88
2023/12/10 02:19:00;;;;;;;0.20;0.20;;;;;;;3.77;71.17;101415.19;5050377;28;20490;-87
2023/12/10 02:21:25;;;;;;;0.20;0.20;;;;;;;3.68;71.97;101418.66;5033823;28;20083;-87
2023/12/10 02:24:02;;;;;;;0.20;0.20;;;;;;;3.66;71.57;101415.28;5050614;28;20149;-87
2023/12/10 02:26:28;;;;;;;0.20;0.20;;;;;;;3.72;71.63;101430.56;5018042;28;20170;-87
2023/12/10 02:28:53;;;;;;;0.20;0.20;;;;;;;3.71;71.75;101428.00;5050357;28;20064;-88
2023/12/10 02:31:19;;;;;;;0.20;0.20;;;;;;;3.73;71.85;101431.41;5050242;28;20029;-87
2023/12/10 02:33:45;;;;;;;0.20;0.20;;;;;;;3.77;71.50;101437.38;5033899;28;20494;-86
2023/12/10 02:36:14;;;;;;;0.20;0.20;;;;;;;3.85;71.26;101436.44;5033323;28;20410;-87
2023/12/10 02:38:40;;;;;;;0.10;0.10;;;;;;;3.87;71.06;101437.28;5034297;28;20033;-87
2023/12/10 02:41:05;;;;;;;0.10;0.10;;;;;;;3.77;71.68;101417.75;5050028;28;20036;-88
2023/12/10 02:43:31;;;;;;;0.10;0.10;;;;;;;3.86;71.04;101421.94;5033655;28;20032;-87
2023/12/10 02:45:57;;;;;;;0.20;0.20;;;;;;;3.86;71.01;101424.50;5050118;28;20036;-88
2023/12/10 02:48:23;;;;;;;0.20;0.20;;;;;;;3.75;71.54;101419.47;5049919;28;20090;-87
2023/12/10 02:50:51;;;;;;;0.20;0.20;;;;;;;3.85;71.39;101426.22;5033203;28;20589;-89
2023/12/10 02:53:17;;;;;;;0.20;0.20;;;;;;;3.87;70.90;101426.19;5050026;28;20049;-88
2023/12/10 02:55:43;;;;;;;0.20;0.20;;;;;;;3.89;70.86;101425.31;5033514;28;20029;-88
2023/12/10 02:58:09;;;;;;;0.20;0.20;;;;;;;3.89;70.97;101433.00;5049919;28;20083;-87
2023/12/10 03:00:34;;;;;;;0.20;0.20;;;;;;;3.92;71.51;101432.09;5049600;28;20112;-88
2023/12/10 03:03:00;;;;;;;0.20;0.20;;;;;;;3.82;71.88;101422.81;5049844;28;20024;-87
2023/12/10 03:05:26;;;;;;;0.20;0.20;;;;;;;3.92;71.07;101421.88;5049359;28;20037;-88
2023/12/10 03:07:52;;;;;;;0.20;0.20;;;;;;;3.83;70.98;101411.69;5049458;28;20025;-87
2023/12/10 03:10:17;;;;;;;0.20;0.20;;;;;;;3.85;70.95;101415.13;5049874;28;20489;-87
2023/12/10 03:12:43;;;;;;;0.20;0.20;;;;;;;3.87;71.36;101426.19;5049708;28;20114;-88
2023/12/10 03:15:08;;;;;;;0.20;0.20;;;;;;;3.76;71.20;101408.38;5049688;28;20052;-87
2023/12/10 03:17:34;;;;;;;0.20;0.20;;;;;;;3.71;70.80;101397.31;5051061;28;20483;-87
2023/12/10 03:20:00;;;;;;;0.10;0.10;;;;;;;3.73;70.82;101393.03;5049137;28;20041;-88
2023/12/10 03:22:25;;;;;;;0.20;0.20;;;;;;;3.73;71.16;101406.66;5049330;28;20025;-89
2023/12/10 03:24:51;;;;;;;0.20;0.20;;;;;;;3.68;71.24;101408.44;5049440;28;20025;-88
2023/12/10 03:27:17;;;;;;;0.10;0.10;;;;;;;3.84;71.09;101428.78;5049598;28;20032;-88
2023/12/10 03:29:42;;;;;;;0.20;0.20;;;;;;;3.70;71.22;101401.56;5033000;28;20469;-87
2023/12/10 03:32:08;;;;;;;0.20;0.20;;;;;;;3.81;70.95;101416.00;5049515;28;20539;-88
2023/12/10 03:34:34;;;;;;;0.10;0.10;;;;;;;3.85;70.93;101412.56;5032452;28;20487;-88
2023/12/10 03:37:00;;;;;;;0.10;0.10;;;;;;;3.89;70.87;101414.22;5032790;28;20079;-87
2023/12/10 03:39:25;;;;;;;0.10;0.10;;;;;;;3.83;71.06;101401.47;5032614;28;20090;-88
2023/12/10 03:41:51;;;;;;;0.20;0.20;;;;;;;3.92;70.83;101396.25;5048837;28;20025;-89
2023/12/10 03:44:16;;;;;;;0.10;0.10;;;;;;;3.89;70.66;101397.16;5032800;28;20029;-88
2023/12/10 03:46:42;;;;;;;0.20;0.20;;;;;;;3.87;70.84;101392.91;5049280;28;20029;-87
2023/12/10 03:49:07;;;;;;;0.20;0.20;;;;;;;3.84;71.17;101396.34;5032304;28;20545;-87
2023/12/10 03:51:33;;;;;;;0.20;0.20;;;;;;;3.63;71.44;101378.59;5032482;28;20033;-88
2023/12/10 03:54:00;;;;;;;0.20;0.20;;;;;;;3.74;71.60;101385.34;5049273;28;20056;-88
2023/12/10 03:56:25;;;;;;;0.20;0.20;;;;;;;3.79;71.50;101399.81;5049262;28;20029;-87
2023/12/10 03:58:51;;;;;;;0.20;0.20;;;;;;;3.85;70.98;101404.88;5049185;28;20579;-88
2023/12/10 04:01:17;;;;;;;0.10;0.10;;;;;;;3.82;71.45;101410.00;5049269;28;20025;-87
2023/12/10 04:03:43;;;;;;;0.20;0.20;;;;;;;3.84;71.40;101411.72;5032297;28;20065;-87
2023/12/10 04:06:08;;;;;;;0.20;0.20;;;;;;;3.79;71.46;101415.16;5032651;28;20452;-86
2023/12/10 04:08:34;;;;;;;0.20;0.20;;;;;;;3.70;71.33;101396.47;5049056;28;20123;-87
2023/12/10 04:10:59;;;;;;;0.20;0.20;;;;;;;3.72;71.77;101394.72;5048988;28;20025;-87
2023/12/10 04:13:25;;;;;;;0.20;0.20;;;;;;;3.65;71.89;101372.63;5048839;28;20128;-88
2023/12/10 04:15:50;;;;;;;0.10;0.10;;;;;;;3.69;72.10;101405.00;5032274;28;20509;-88
2023/12/10 04:18:16;;;;;;;0.10;0.10;;;;;;;3.74;72.08;101413.50;5032029;28;20025;-88
2023/12/10 04:20:43;;;;;;;0.10;0.10;;;;;;;3.72;71.80;101402.41;5032208;28;20103;-87
2023/12/10 04:23:08;;;;;;;0.20;0.20;;;;;;;3.60;72.51;101391.44;5048742;28;20410;-87
2023/12/10 04:25:34;;;;;;;0.10;0.10;;;;;;;3.61;72.25;101385.44;5048990;28;20064;-87
2023/12/10 04:27:59;;;;;;;0.10;0.10;;;;;;;3.73;72.45;101400.69;5050132;28;20510;-87
2023/12/10 04:30:26;;;;;;;0.20;0.20;;;;;;;3.71;72.38;101410.09;5032428;28;20154;-87
2023/12/10 04:32:52;;;;;;;0.10;0.10;;;;;;;3.67;72.61;101406.72;5048693;28;20188;-86
2023/12/10 04:35:18;;;;;;;0.10;0.10;;;;;;;3.73;73.08;101416.91;5048892;28;20025;-87
2023/12/10 04:37:44;;;;;;;0.20;0.20;;;;;;;3.73;73.05;101416.06;5015898;28;20460;-88
2023/12/10 04:40:13;;;;;;;0.20;0.20;;;;;;;3.73;72.52;101401.53;5032028;28;20025;-87
2023/12/10 04:42:38;;;;;;;0.10;0.10;;;;;;;3.82;72.30;101410.84;5049177;28;20175;-88
2023/12/10 04:45:06;;;;;;;0.20;0.20;;;;;;;3.78;72.01;101393.00;5048594;28;20494;-88
2023/12/10 04:47:32;;;;;;;0.20;0.20;;;;;;;3.70;72.12;101386.22;5048564;28;20064;-88
2023/12/10 04:49:58;;;;;;;0.10;0.10;;;;;;;3.68;72.68;101408.44;5032047;28;20025;-87
2023/12/10 04:52:23;;;;;;;0.20;0.20;;;;;;;3.70;72.83;101404.13;5048802;28;20060;-87
2023/12/10 04:54:49;;;;;;;0.10;0.10;;;;;;;3.78;72.85;101408.34;5035492;28;20075;-86
2023/12/10 04:57:15;;;;;;;0.20;0.20;;;;;;;3.73;73.06;101401.53;5051972;28;20032;-86
2023/12/10 04:59:40;;;;;;;0.20;0.20;;;;;;;3.64;73.41;101400.81;5051805;28;20037;-87
2023/12/10 05:02:06;;;;;;;0.20;0.20;;;;;;;3.62;73.41;101402.50;5018753;28;20033;-88
2023/12/10 05:04:31;;;;;;;0.20;0.20;;;;;;;3.69;73.51;101399.88;5052174;28;20060;-86
2023/12/10 05:06:57;;;;;;;0.20;0.20;;;;;;;3.48;73.83;101389.81;5035209;28;20036;-87
2023/12/10 05:09:22;;;;;;;0.20;0.20;;;;;;;3.50;74.06;101398.31;5052077;28;20024;-87
2023/12/10 05:11:48;;;;;;;0.15;0.15;;;;;;;3.53;74.34;101403.41;5052002;28;20434;-87
2023/12/10 05:14:13;;;;;;;0.20;0.20;;;;;;;3.54;74.31;101405.13;5035228;28;20025;-88
2023/12/10 05:16:39;;;;;;;0.20;0.20;;;;;;;3.55;74.40;101411.94;5051326;28;20045;-87
2023/12/10 05:19:05;;;;;;;0.10;0.10;;;;;;;3.60;74.35;101414.47;5052684;28;20025;-87
2023/12/10 05:21:30;;;;;;;0.10;0.10;;;;;;;3.55;74.38;101413.66;5053000;28;20021;-88
2023/12/10 05:23:57;;;;;;;0.20;0.20;;;;;;;3.42;74.34;101389.84;5051464;28;20113;-87
2023/12/10 05:26:22;;;;;;;0.10;0.10;;;;;;;3.63;73.90;101417.84;5035134;28;20539;-88
2023/12/10 05:28:48;;;;;;;0.10;0.10;;;;;;;3.51;73.85;101397.47;5051474;28;20112;-88
2023/12/10 05:31:14;;;;;;;0.20;0.20;;;;;;;3.61;74.18;101411.88;5051404;28;20053;-87
2023/12/10 05:33:39;;;;;;;0.20;0.20;;;;;;;3.61;74.70;101427.25;5034903;28;20032;-87
2023/12/10 05:36:06;;;;;;;0.10;0.10;;;;;;;3.64;74.60;101419.56;5051501;28;20086;-87
2023/12/10 05:38:31;;;;;;;0.20;0.20;;;;;;;3.60;74.33;101420.44;5051371;28;20024;-88
2023/12/10 05:40:57;;;;;;;0.10;0.10;;;;;;;3.51;74.33;101414.53;5034809;28;20602;-87
2023/12/10 05:43:22;;;;;;;0.20;0.20;;;;;;;3.52;74.67;101406.00;5051694;28;20104;-88
2023/12/10 05:45:48;;;;;;;0.20;0.20;;;;;;;3.37;74.84;101394.16;5034550;28;20039;-87
2023/12/10 05:48:13;;;;;;;0.20;0.20;;;;;;;3.42;75.13;101394.97;5034716;28;20025;-87
2023/12/10 05:50:39;;;;;;;0.20;0.20;;;;;;;3.57;74.91;101404.25;5034608;28;20545;-87
2023/12/10 05:53:05;;;;;;;0.20;0.20;;;;;;;3.60;74.37;101405.06;5051275;28;20033;-89
2023/12/10 05:55:30;;;;;;;0.20;0.20;;;;;;;3.63;74.61;101405.03;5017540;28;20047;-88
2023/12/10 05:57:56;;;;;;;0.20;0.20;;;;;;;3.52;75.03;101393.19;5051090;28;20511;-87
2023/12/10 06:00:21;;;;;;;0.10;0.10;;;;;;;3.71;74.22;101412.66;5033873;28;20020;-88
2023/12/10 06:02:47;;;;;;;0.20;0.20;;;;;;;3.73;74.33;101416.91;5051149;28;20069;-88
2023/12/10 06:05:12;;;;;;;0.20;0.20;;;;;;;3.57;74.62;101415.34;5050311;28;20039;-87
2023/12/10 06:07:38;;;;;;;0.20;0.20;;;;;;;3.68;74.63;101423.78;5034277;28;20037;-87
2023/12/10 06:10:04;;;;;;;0.20;0.20;;;;;;;3.49;75.07;101401.75;5034369;28;20462;-87
2023/12/10 06:12:30;;;;;;;0.20;0.20;;;;;;;3.48;74.85;101417.13;5050939;28;20116;-87
2023/12/10 06:14:56;;;;;;;0.10;0.10;;;;;;;3.38;74.92;101396.72;5050349;28;20063;-88
2023/12/10 06:17:21;;;;;;;0.20;0.20;;;;;;;3.54;74.92;101405.13;5050586;28;20127;-86
2023/12/10 06:19:47;;;;;;;0.10;0.10;;;;;;;3.64;74.55;101431.50;5017489;28;20084;-88
2023/12/10 06:22:13;;;;;;;0.20;0.20;;;;;;;3.53;75.36;101416.19;5034267;28;20029;-87
2023/12/10 06:24:38;;;;;;;0.10;0.10;;;;;;;3.54;75.36;101425.59;5051757;28;20052;-87
2023/12/10 06:27:04;;;;;;;0.20;0.20;;;;;;;3.46;75.27;101406.91;5033771;28;20028;-88
2023/12/10 06:29:30;;;;;;;0.10;0.10;;;;;;;3.61;74.87;101429.78;5049930;28;20116;-86
2023/12/10 06:31:55;;;;;;;0.20;0.20;;;;;;;3.65;75.01;101433.19;5050223;28;20067;-88
2023/12/10 06:34:21;;;;;;;0.20;0.20;;;;;;;3.59;74.68;101417.88;5034143;28;20086;-88
2023/12/10 06:36:47;;;;;;;0.20;0.20;;;;;;;3.62;74.65;101423.81;5050353;28;20112;-87
2023/12/10 06:39:12;;;;;;;0.20;0.20;;;;;;;3.70;74.69;101437.41;5049980;28;20123;-87
2023/12/10 06:41:38;;;;;;;0.10;0.10;;;;;;;3.55;74.00;101406.84;5050263;28;20028;-86
2023/12/10 06:44:05;;;;;;;0.20;0.20;;;;;;;3.77;73.97;101439.94;5049621;28;20392;-87
2023/12/10 06:46:30;;;;;;;0.20;0.20;;;;;;;3.74;73.67;101439.09;5033732;28;20082;-87
2023/12/10 06:48:56;;;;;;;0.20;0.20;;;;;;;3.56;74.18;101429.00;5033599;28;20116;-87
2023/12/10 06:51:21;;;;;;;0.20;0.20;;;;;;;3.59;74.63;101435.78;5033532;28;20403;-88
2023/12/10 06:53:47;;;;;;;0.20;0.20;;;;;;;3.66;74.58;101437.44;5033328;28;20495;-87
2023/12/10 06:56:13;;;;;;;0.15;0.15;;;;;;;3.43;74.70;101417.13;5017001;28;20089;-87
2023/12/10 06:58:39;;;;;;;0.20;0.20;;;;;;;3.62;74.66;101439.16;5049623;28;20032;-87
2023/12/10 07:01:04;;;;;;;0.20;0.20;;;;;;;3.63;74.69;101440.00;5049705;28;20033;-87
2023/12/10 07:03:30;;;;;;;0.20;0.20;;;;;;;3.71;74.81;101453.59;5050876;28;20025;-88
2023/12/10 07:05:56;;;;;;;0.20;0.20;;;;;;;3.71;74.93;101436.53;5049783;28;20078;-88
2023/12/10 07:08:21;;;;;;;0.20;0.20;;;;;;;3.72;74.00;101430.56;5049832;28;20509;-87
2023/12/10 07:10:47;;;;;;;0.20;0.20;;;;;;;3.70;74.04;101432.28;5050127;28;20044;-86
2023/12/10 07:13:13;;;;;;;0.20;0.20;;;;;;;3.77;74.27;101434.81;5049732;28;20029;-87
2023/12/10 07:15:38;;;;;;;0.20;0.20;;;;;;;3.81;74.44;101444.16;5032229;28;20040;-88
2023/12/10 07:18:04;;;;;;;0.20;0.20;;;;;;;3.93;74.06;101454.28;5049538;28;20398;-88
2023/12/10 07:20:30;;;;;;;0.20;0.20;;;;;;;4.03;72.93;101455.91;5049611;28;20032;-87
2023/12/10 07:22:55;;;;;;;0.20;0.20;;;;;;;3.93;72.97;101450.03;5016538;28;20098;-87
2023/12/10 07:25:21;;;;;;;0.20;0.20;;;;;;;3.80;73.82;101450.97;5032553;28;20486;-87
2023/12/10 07:27:47;;;;;;;0.20;0.20;;;;;;;3.78;73.27;101439.91;5032851;28;20040;-87
2023/12/10 07:30:12;;;;;;;0.20;0.20;;;;;;;3.79;73.73;101451.84;5049830;28;20035;-87
2023/12/10 07:32:38;;;;;;;0.15;0.15;;;;;;;3.84;73.45;101462.91;5049204;28;20020;-87
2023/12/10 07:35:04;;;;;;;0.10;0.10;;;;;;;3.76;73.61;101463.81;5016274;28;20478;-87
2023/12/10 07:37:29;;;;;;;0.20;0.20;;;;;;;3.79;73.74;101462.09;5032891;28;20108;-87
2023/12/10 07:39:55;;;;;;;0.20;0.20;;;;;;;3.81;73.37;101464.63;5032255;28;20060;-89
2023/12/10 07:42:21;;;;;;;0.20;0.20;;;;;;;3.92;73.63;101467.94;5049475;28;20060;-88
2023/12/10 07:44:46;;;;;;;0.20;0.20;;;;;;;3.93;72.74;101470.53;5049238;28;20057;-86
2023/12/10 07:47:12;;;;;;;0.20;0.20;;;;;;;3.95;72.83;101467.94;5032630;28;20029;-87
2023/12/10 07:49:38;;;;;;;0.20;0.20;;;;;;;3.83;73.03;101452.66;5049349;28;20021;-87
2023/12/10 07:52:03;;;;;;;0.20;0.20;;;;;;;3.93;72.90;101464.53;5032578;28;20032;-88
2023/12/10 07:54:29;;;;;;;0.20;0.20;;;;;;;3.78;73.48;101436.50;5048854;28;20058;-87
2023/12/10 07:56:55;;;;;;;0.20;0.20;;;;;;;3.86;73.36;101450.09;5049242;28;20033;-87
2023/12/10 07:59:20;;;;;;;0.20;0.20;;;;;;;3.99;73.64;101464.47;5048979;28;20493;-87
2023/12/10 08:01:46;;;;;;;0.20;0.20;;;;;;;4.01;73.48;101462.75;5032308;28;20411;-87
2023/12/10 08:04:11;;;;;;;0.20;0.20;;;;;;;4.06;73.30;101466.13;5050747;28;20040;-87
2023/12/10 08:06:37;;;;;;;0.20;0.20;;;;;;;4.05;73.38;101461.88;5032619;28;20129;-88
2023/12/10 08:09:04;;;;;;;0.20;0.20;;;;;;;4.16;73.02;101483.13;5032261;28;20049;-87
2023/12/10 08:11:31;;;;;;;0.10;0.10;;;;;;;4.29;72.31;101484.69;5049520;28;20446;-88
2023/12/10 08:13:56;;;;;;;0.20;0.20;;;;;;;4.14;72.70;101471.19;5032607;28;20025;-87
2023/12/10 08:16:22;;;;;;;0.20;0.20;;;;;;;4.39;72.04;101489.72;5032196;28;20045;-88
2023/12/10 08:18:48;;;;;;;0.20;0.20;;;;;;;4.36;71.72;101480.38;5032421;28;20167;-89
2023/12/10 08:21:15;;;;;;;0.20;0.20;;;;;;;4.48;71.90;101476.84;5048836;28;20116;-87
2023/12/10 08:23:40;;;;;;;0.20;0.20;;;;;;;4.57;71.43;101480.16;5048710;28;20036;-87
2023/12/10 08:26:06;;;;;;;0.20;0.20;;;;;;;4.65;71.10;101481.78;5049001;28;20099;-88
2023/12/10 08:28:31;;;;;;;0.20;0.20;;;;;;;4.69;71.02;101486.84;5035776;28;20080;-88
2023/12/10 08:30:57;;;;;;;0.20;0.20;;;;;;;4.68;70.05;101479.19;5035842;28;20025;-87
2023/12/10 08:33:22;;;;;;;0.20;0.20;;;;;;;4.55;70.39;101460.53;5052398;28;20510;-88
2023/12/10 08:35:48;;;;;;;0.17;0.17;;;;;;;4.65;70.30;101477.50;5052619;28;20410;-87
2023/12/10 08:38:13;;;;;;;0.20;0.20;;;;;;;4.49;70.90;101463.16;5019125;28;20037;-88
2023/12/10 08:40:39;;;;;;;0.20;0.20;;;;;;;4.60;70.91;101480.09;5053821;28;20029;-88
2023/12/10 08:43:04;;;;;;;0.20;0.20;;;;;;;4.65;70.88;101482.63;5035734;28;20103;-87
2023/12/10 08:45:30;;;;;;;0.20;0.20;;;;;;;4.73;70.02;101475.72;5052292;28;20067;-87
2023/12/10 08:47:56;;;;;;;0.20;0.20;;;;;;;4.56;70.29;101464.78;5052357;28;20055;-86
2023/12/10 08:50:21;;;;;;;0.20;0.20;;;;;;;4.65;70.53;101471.53;5035698;28;20033;-88
2023/12/10 08:52:47;;;;;;;0.20;0.20;;;;;;;4.69;71.13;101465.50;5052074;28;20021;-87
2023/12/10 08:55:12;;;;;;;0.20;0.20;;;;;;;4.84;70.84;101468.75;5052409;28;20028;-88
2023/12/10 08:57:38;;;;;;;0.20;0.20;;;;;;;4.76;69.68;101462.84;5052234;28;20128;-88
2023/12/10 09:00:04;;;;;;;0.20;0.20;;;;;;;4.74;69.81;101458.63;5035593;28;20120;-87
2023/12/10 09:02:30;;;;;;;0.20;0.20;;;;;;;4.62;70.27;101451.91;5018902;28;20040;-87
2023/12/10 09:04:55;;;;;;;0.20;0.20;;;;;;;4.75;69.84;101462.88;5051818;28;20037;-87
2023/12/10 09:07:21;;;;;;;0.20;0.20;;;;;;;4.61;70.35;101460.44;5035259;28;20033;-88
2023/12/10 09:09:47;;;;;;;0.20;0.20;;;;;;;4.52;71.16;101451.19;5035338;28;20061;-88
2023/12/10 09:12:13;;;;;;;0.20;0.20;;;;;;;4.51;70.99;101446.03;5051686;28;20027;-88
2023/12/10 09:14:38;;;;;;;0.20;0.20;;;;;;;4.55;71.19;101442.59;5051651;28;20418;-88
2023/12/10 09:17:04;;;;;;;0.20;0.20;;;;;;;4.67;70.96;101444.16;5051735;28;20045;-87
2023/12/10 09:19:31;;;;;;;0.20;0.20;;;;;;;4.64;70.70;101433.97;5051716;28;20029;-86
2023/12/10 09:21:57;;;;;;;0.20;0.20;;;;;;;4.77;70.57;101438.06;5051542;28;20041;-87
2023/12/10 09:24:22;;;;;;;0.20;0.20;;;;;;;4.70;70.43;101424.47;5051820;28;20420;-88
2023/12/10 09:26:49;;;;;;;0.20;0.20;;;;;;;4.66;69.78;101409.16;5051535;28;20067;-88
2023/12/10 09:29:14;;;;;;;0.20;0.20;;;;;;;4.85;70.25;101439.69;5051663;28;20025;-88
2023/12/10 09:31:40;;;;;;;0.20;0.20;;;;;;;4.93;70.19;101420.78;5051385;28;20111;-87
2023/12/10 09:34:06;;;;;;;0.20;0.20;;;;;;;5.05;69.64;101420.63;5034749;28;20025;-89
2023/12/10 09:36:31;;;;;;;0.20;0.20;;;;;;;5.06;69.17;101417.19;5051031;28;20017;-87
2023/12/10 09:38:57;;;;;;;0.20;0.20;;;;;;;5.11;68.84;101423.09;5050669;28;20037;-87
2023/12/10 09:41:22;;;;;;;0.20;0.20;;;;;;;5.16;68.75;101414.47;5051461;28;20017;-87
2023/12/10 09:43:48;;;;;;;0.20;0.20;;;;;;;5.25;68.76;101421.19;5035066;28;20462;-89
2023/12/10 09:46:14;;;;;;;0.20;0.20;;;;;;;5.28;68.25;101400.63;5018240;28;20086;-86
2023/12/10 09:48:41;;;;;;;0.20;0.20;;;;;;;5.26;68.42;101407.50;5034512;28;20036;-87
2023/12/10 09:51:06;;;;;;;0.20;0.20;;;;;;;5.41;68.16;101414.13;5017690;28;20112;-87
2023/12/10 09:53:32;;;;;;;0.20;0.20;;;;;;;5.34;67.81;101413.38;5051197;28;20124;-86
2023/12/10 09:55:57;;;;;;;0.20;0.20;;;;;;;5.15;68.20;101388.84;5051250;28;20025;-87
2023/12/10 09:58:23;;;;;;;0.20;0.20;;;;;;;5.09;68.35;101383.78;5034260;28;20037;-88
2023/12/10 10:00:50;;;;;;;0.20;0.20;;;;;;;5.14;68.58;101377.75;5051069;28;20605;-88
2023/12/10 10:03:16;;;;;;;0.20;0.20;;;;;;;5.25;68.57;101379.31;5034464;28;20453;-89
2023/12/10 10:05:41;;;;;;;0.20;0.20;;;;;;;5.17;68.13;101390.50;5034161;28;20541;-88
2023/12/10 10:08:07;;;;;;;0.20;0.20;;;;;;;5.23;68.11;101379.31;5034391;28;20112;-87
2023/12/10 10:10:32;;;;;;;0.20;0.20;;;;;;;5.27;67.96;101378.41;5050732;28;20033;-87
2023/12/10 10:12:59;;;;;;;0.20;0.20;;;;;;;5.18;67.93;101358.84;5017753;28;20119;-87
2023/12/10 10:15:27;;;;;;;0.20;0.20;;;;;;;5.35;68.40;101365.47;5034273;28;20032;-88
2023/12/10 10:17:53;;;;;;;0.20;0.20;;;;;;;5.30;68.13;101345.00;5034504;28;20025;-87
2023/12/10 10:20:19;;;;;;;0.20;0.20;;;;;;;5.39;68.02;101365.38;5033917;28;20411;-87
2023/12/10 10:22:46;;;;;;;0.20;0.20;;;;;;;5.38;67.96;101355.97;5017459;28;20032;-87
2023/12/10 10:25:11;;;;;;;0.20;0.20;;;;;;;5.33;66.88;101362.91;5050438;28;20053;-87
2023/12/10 10:27:38;;;;;;;0.20;0.20;;;;;;;5.13;66.82;101359.81;5050571;28;20548;-86
2023/12/10 10:30:04;;;;;;;0.20;0.20;;;;;;;5.07;67.59;101349.63;5050390;28;20029;-87
2023/12/10 10:32:30;;;;;;;0.20;0.20;;;;;;;5.21;66.72;101347.72;5051710;28;20021;-88
2023/12/10 10:34:55;;;;;;;0.20;0.20;;;;;;;5.16;66.41;101347.78;5033549;28;20406;-89
2023/12/10 10:37:21;;;;;;;0.20;0.20;;;;;;;5.21;66.95;101349.41;5050141;28;20021;-87
2023/12/10 10:39:49;;;;;;;0.20;0.20;;;;;;;5.31;67.09;101346.72;5050314;28;20024;-87
2023/12/10 10:42:17;;;;;;;0.20;0.20;;;;;;;5.29;66.64;101347.59;5050439;28;20028;-88
2023/12/10 10:44:42;;;;;;;0.20;0.20;;;;;;;5.31;66.47;101336.44;5033578;28;20028;-88
2023/12/10 10:47:08;;;;;;;0.20;0.20;;;;;;;5.45;65.91;101354.19;5033511;28;20035;-88
2023/12/10 10:49:39;;;;;;;0.20;0.20;;;;;;;5.12;65.45;101329.91;5016931;28;20025;-87
2023/12/10 10:52:07;;;;;;;0.20;0.20;;;;;;;5.33;66.30;101344.13;5033979;28;20036;-87
2023/12/10 10:54:33;;;;;;;0.20;0.20;;;;;;;5.19;66.07;101321.22;5033742;28;20086;-88
2023/12/10 10:56:58;;;;;;;0.20;0.20;;;;;;;5.32;66.66;101356.09;5050255;28;20025;-89
2023/12/10 10:59:30;;;;;;;0.20;0.20;;;;;;;5.47;66.50;101352.44;5033459;28;20033;-88
2023/12/10 11:02:00;;;;;;;0.20;0.20;;;;;;;5.52;66.48;101354.94;5017426;28;20060;-87
2023/12/10 11:04:38;;;;;;;0.20;0.20;;;;;;;5.57;65.45;101351.41;5032799;28;20033;-88
2023/12/10 11:07:07;;;;;;;0.20;0.20;;;;;;;5.57;65.80;101358.25;5050233;28;20028;-88
2023/12/10 11:09:59;;;;;;;0.20;0.20;;;;;;;5.52;65.23;101354.94;5050016;28;20075;-87
2023/12/10 11:12:40;;;;;;;0.20;0.20;;;;;;;5.50;65.85;101357.50;5049554;28;20483;-87
2023/12/10 11:15:29;;;;;;;0.20;0.20;;;;;;;5.35;66.08;101353.47;5050937;28;20082;-86
2023/12/10 11:17:56;;;;;;;0.20;0.20;;;;;;;5.48;65.75;101354.97;5066000;28;20495;-87
2023/12/10 11:20:36;;;;;;;0.20;0.20;;;;;;;5.53;65.89;101347.19;5050403;28;20049;-87
2023/12/10 11:23:05;;;;;;;0.20;0.20;;;;;;;5.50;65.26;101338.69;5050831;28;20075;-88
2023/12/10 11:25:31;;;;;;;0.20;0.20;;;;;;;5.57;65.12;101342.84;5051139;28;20041;-85
2023/12/10 11:27:57;;;;;;;0.20;0.20;;;;;;;5.43;65.14;101341.38;5049489;28;20036;-85